createdAt,value
2023-01-15T00:01:05.109Z,78.63
2023-01-15T00:04:23.799Z,79.03
2023-01-15T00:07:25.940Z,79.30
2023-01-15T00:10:27.584Z,78.91
2023-01-15T00:13:29.305Z,78.98
2023-01-15T00:16:30.861Z,78.78
2023-01-15T00:19:32.545Z,78.49
2023-01-15T00:22:34.138Z,78.31
2023-01-15T00:25:35.805Z,78.19
2023-01-15T00:28:37.372Z,78.01
2023-01-15T00:31:39.065Z,78.03
2023-01-15T00:34:41.867Z,77.73
2023-01-15T00:37:43.870Z,77.76
2023-01-15T00:40:45.394Z,77.69
2023-01-15T00:43:47.010Z,77.87
2023-01-15T00:46:48.687Z,77.67
2023-01-15T00:49:50.478Z,77.68
2023-01-15T00:52:51.999Z,77.82
2023-01-15T00:55:53.652Z,77.59
2023-01-15T00:58:55.663Z,77.46
2023-01-15T01:01:57.415Z,77.63
2023-01-15T01:04:59.312Z,77.61
2023-01-15T01:08:01.370Z,77.66
2023-01-15T01:11:06.902Z,77.22
2023-01-15T01:14:10.271Z,77.62
2023-01-15T01:17:11.902Z,77.55
2023-01-15T01:20:15.637Z,77.37
2023-01-15T01:23:17.420Z,77.55
2023-01-15T01:26:19.168Z,77.73
2023-01-15T01:29:21.864Z,77.45
2023-01-15T01:32:23.759Z,77.46
2023-01-15T01:35:25.475Z,77.79
2023-01-15T01:38:27.223Z,77.96
2023-01-15T01:41:29.955Z,77.40
2023-01-15T01:44:34.597Z,76.49
2023-01-15T01:47:36.197Z,73.46
2023-01-15T01:50:39.737Z,73.38
2023-01-15T01:53:41.368Z,73.75
2023-01-15T01:56:42.960Z,74.22
2023-01-15T01:59:45.317Z,74.49
2023-01-15T02:02:48.345Z,74.60
2023-01-15T02:05:53.306Z,74.63
2023-01-15T02:08:54.935Z,74.43
2023-01-15T02:11:57.772Z,74.64
2023-01-15T02:15:08.122Z,74.55
2023-01-15T02:18:34.034Z,74.52
2023-01-15T02:22:29.786Z,74.26
2023-01-15T02:25:47.109Z,73.96
2023-01-15T02:28:50.256Z,74.01
2023-01-15T02:31:52.396Z,73.94
2023-01-15T02:34:56.864Z,73.59
2023-01-15T02:38:01.627Z,73.57
2023-01-15T02:41:06.170Z,73.14
2023-01-15T02:44:09.166Z,72.88
2023-01-15T02:47:11.177Z,73.24
2023-01-15T02:50:16.854Z,73.27
2023-01-15T02:53:21.657Z,73.47
2023-01-15T02:56:26.049Z,73.60
2023-01-15T02:59:34.042Z,73.75
2023-01-15T03:02:44.985Z,73.86
2023-01-15T03:06:04.325Z,74.05
2023-01-15T03:09:07.030Z,73.95
2023-01-15T03:12:17.569Z,73.77
2023-01-15T03:15:20.732Z,72.19
2023-01-15T03:18:22.563Z,70.64
2023-01-15T03:21:37.186Z,67.40
2023-01-15T03:24:50.065Z,66.76
2023-01-15T03:27:54.686Z,64.06
2023-01-15T03:30:56.402Z,59.47
2023-01-15T03:34:01.239Z,59.29
2023-01-15T03:37:02.693Z,58.95
2023-01-15T03:40:04.732Z,59.86
2023-01-15T03:43:09.731Z,60.39
2023-01-15T03:46:39.810Z,63.25
2023-01-15T03:49:56.648Z,62.80
2023-01-15T03:53:15.927Z,61.13
2023-01-15T03:56:20.562Z,61.31
2023-01-15T03:59:28.356Z,62.21
2023-01-15T04:02:30.515Z,63.14
2023-01-15T04:05:32.711Z,63.21
2023-01-15T04:08:39.457Z,63.04
2023-01-15T04:11:40.956Z,63.18
2023-01-15T04:14:42.548Z,63.69
2023-01-15T04:17:44.224Z,60.95
2023-01-15T04:20:46.013Z,59.74
2023-01-15T04:23:47.953Z,58.82
2023-01-15T04:26:49.690Z,60.14
2023-01-15T04:29:51.275Z,61.99
2023-01-15T04:32:52.897Z,62.39
2023-01-15T04:35:54.359Z,62.26
2023-01-15T04:38:55.903Z,62.24
2023-01-15T04:41:57.467Z,59.48
2023-01-15T04:44:59.254Z,60.66
2023-01-15T04:48:00.840Z,60.29
2023-01-15T04:51:03.119Z,60.31
2023-01-15T04:54:05.298Z,59.27
2023-01-15T04:57:07.459Z,61.15
2023-01-15T05:00:09.676Z,61.39
2023-01-15T05:03:11.524Z,61.69
2023-01-15T05:06:13.236Z,61.32
2023-01-15T05:09:14.901Z,60.17
2023-01-15T05:12:16.405Z,60.48
2023-01-15T05:15:18.112Z,61.00
2023-01-15T05:18:19.576Z,61.61
2023-01-15T05:21:24.467Z,62.14
2023-01-15T05:24:26.038Z,62.20
2023-01-15T05:27:27.608Z,61.17
2023-01-15T05:30:29.288Z,61.99
2023-01-15T05:33:30.914Z,62.99
2023-01-15T05:36:32.505Z,63.54
2023-01-15T05:39:34.333Z,63.48
2023-01-15T05:42:35.882Z,63.77
2023-01-15T05:45:38.159Z,63.61
2023-01-15T05:48:39.714Z,63.44
2023-01-15T05:51:41.675Z,63.55
2023-01-15T05:54:43.255Z,62.55
2023-01-15T05:57:44.798Z,62.41
2023-01-15T06:00:46.395Z,63.22
2023-01-15T06:03:47.992Z,62.97
2023-01-15T06:06:50.098Z,62.97
2023-01-15T06:09:51.799Z,63.25
2023-01-15T06:12:53.267Z,63.67
2023-01-15T06:15:54.900Z,63.44
2023-01-15T06:18:59.971Z,63.27
2023-01-15T06:22:01.616Z,63.24
2023-01-15T06:25:03.501Z,63.71
2023-01-15T06:28:06.574Z,63.20
2023-01-15T06:31:10.603Z,63.45
2023-01-15T06:34:12.218Z,63.98
2023-01-15T06:37:13.888Z,63.51
2023-01-15T06:40:15.668Z,63.55
2023-01-15T06:43:17.323Z,63.93
2023-01-15T06:46:18.856Z,64.10
2023-01-15T06:49:20.488Z,63.89
2023-01-15T06:52:22.777Z,64.14
2023-01-15T06:55:24.447Z,64.03
2023-01-15T06:58:26.123Z,64.36
2023-01-15T07:01:27.668Z,64.35
2023-01-15T07:04:29.531Z,64.56
2023-01-15T07:07:31.265Z,64.75
2023-01-15T07:10:35.918Z,65.06
2023-01-15T07:13:37.467Z,65.10
2023-01-15T07:16:39.191Z,65.07
2023-01-15T07:19:40.900Z,65.08
2023-01-15T07:22:42.604Z,65.21
2023-01-15T07:25:44.226Z,64.95
2023-01-15T07:28:45.754Z,65.04
2023-01-15T07:31:47.576Z,64.98
2023-01-15T07:34:49.079Z,64.98
2023-01-15T07:37:51.981Z,65.02
2023-01-15T07:40:56.574Z,64.91
2023-01-15T07:43:58.354Z,64.74
2023-01-15T07:47:00.028Z,64.81
2023-01-15T07:50:02.357Z,63.94
2023-01-15T07:53:04.085Z,64.42
2023-01-15T07:56:05.925Z,64.16
2023-01-15T07:59:07.496Z,64.40
2023-01-15T08:02:09.215Z,63.90
2023-01-15T08:05:11.012Z,63.72
2023-01-15T08:08:16.780Z,63.45
2023-01-15T08:11:18.353Z,62.76
2023-01-15T08:14:20.196Z,62.14
2023-01-15T08:17:21.865Z,62.37
2023-01-15T08:20:24.657Z,62.35
2023-01-15T08:23:26.235Z,61.82
2023-01-15T08:26:27.823Z,61.88
2023-01-15T08:29:29.684Z,61.83
2023-01-15T08:32:31.688Z,61.96
2023-01-15T08:35:33.264Z,61.56
2023-01-15T08:38:35.277Z,61.20
2023-01-15T08:41:36.818Z,61.43
2023-01-15T08:44:38.296Z,61.50
2023-01-15T08:47:39.911Z,61.76
2023-01-15T08:50:41.384Z,61.30
2023-01-15T08:53:43.178Z,61.67
2023-01-15T08:56:45.001Z,61.87
2023-01-15T08:59:47.647Z,61.33
2023-01-15T09:02:50.359Z,60.14
2023-01-15T09:05:52.139Z,60.18
2023-01-15T09:08:53.863Z,60.61
2023-01-15T09:11:55.437Z,60.47
2023-01-15T09:15:01.570Z,60.02
2023-01-15T09:18:23.581Z,59.38
2023-01-15T09:21:25.247Z,57.93
2023-01-15T09:24:26.984Z,58.15
2023-01-15T09:27:29.191Z,58.61
2023-01-15T09:30:31.024Z,58.06
2023-01-15T09:33:32.789Z,58.62
2023-01-15T09:36:35.568Z,58.56
2023-01-15T09:39:38.400Z,57.89
2023-01-15T09:42:51.731Z,58.23
2023-01-15T09:46:05.247Z,58.44
2023-01-15T09:49:23.587Z,59.47
2023-01-15T09:52:44.009Z,59.06
2023-01-15T09:55:47.812Z,59.33
2023-01-15T09:58:50.011Z,58.12
2023-01-15T10:01:52.652Z,58.11
2023-01-15T10:05:04.766Z,58.74
2023-01-15T10:08:19.736Z,58.81
2023-01-15T10:11:50.926Z,59.22
2023-01-15T10:15:15.170Z,59.74
2023-01-15T10:18:20.240Z,59.75
2023-01-15T10:21:43.575Z,59.97
2023-01-15T10:24:53.678Z,59.96
2023-01-15T10:27:57.962Z,60.22
2023-01-15T10:31:09.325Z,59.96
2023-01-15T10:34:41.284Z,59.34
2023-01-15T10:38:09.284Z,59.06
2023-01-15T10:41:19.669Z,59.29
2023-01-15T10:44:39.235Z,59.06
2023-01-15T10:47:42.866Z,58.53
2023-01-15T10:50:44.820Z,58.48
2023-01-15T10:53:51.991Z,59.15
2023-01-15T10:56:57.914Z,59.26
2023-01-15T11:00:01.144Z,59.29
2023-01-15T11:03:05.896Z,58.95
2023-01-15T11:06:21.965Z,60.00
2023-01-15T11:09:25.443Z,59.63
2023-01-15T11:12:28.867Z,59.74
2023-01-15T11:15:30.608Z,60.18
2023-01-15T11:18:36.691Z,60.39
2023-01-15T11:21:41.617Z,60.20
2023-01-15T11:24:58.358Z,59.33
2023-01-15T11:28:03.089Z,59.70
2023-01-15T11:31:04.907Z,58.97
2023-01-15T11:34:21.820Z,58.90
2023-01-15T11:37:24.273Z,58.73
2023-01-15T11:40:25.973Z,58.38
2023-01-15T11:43:28.735Z,58.55
2023-01-15T11:46:32.392Z,58.77
2023-01-15T11:49:34.020Z,58.69
2023-01-15T11:52:38.064Z,58.82
2023-01-15T11:55:39.852Z,58.69
2023-01-15T11:58:46.718Z,57.22
2023-01-15T12:02:01.150Z,57.51
2023-01-15T12:05:03.792Z,57.91
2023-01-15T12:08:28.622Z,57.51
2023-01-15T12:11:40.109Z,57.06
2023-01-15T12:15:18.767Z,57.65
2023-01-15T12:18:45.519Z,57.12
2023-01-15T12:22:07.189Z,55.66
2023-01-15T12:25:11.815Z,56.58
2023-01-15T12:28:22.785Z,57.24
2023-01-15T12:31:37.884Z,57.97
2023-01-15T12:34:47.024Z,58.10
2023-01-15T12:37:53.887Z,58.83
2023-01-15T12:40:59.936Z,58.54
2023-01-15T12:44:01.650Z,59.08
2023-01-15T12:47:07.636Z,59.20
2023-01-15T12:50:48.290Z,59.16
2023-01-15T12:53:53.215Z,60.17
2023-01-15T12:57:24.269Z,60.49
2023-01-15T13:00:31.089Z,61.01
2023-01-15T13:03:48.470Z,61.26
2023-01-15T13:06:58.414Z,61.44
2023-01-15T13:10:16.510Z,62.21
2023-01-15T13:13:26.556Z,62.44
2023-01-15T13:16:39.168Z,62.80
2023-01-15T13:20:10.062Z,63.39
2023-01-15T13:23:27.232Z,64.27
2023-01-15T13:27:02.625Z,64.78
2023-01-15T13:30:31.828Z,65.28
2023-01-15T13:33:44.435Z,65.97
2023-01-15T13:36:46.762Z,65.63
2023-01-15T13:39:49.453Z,66.43
2023-01-15T13:42:51.545Z,67.78
2023-01-15T13:45:53.423Z,68.00
2023-01-15T13:48:55.267Z,68.03
2023-01-15T13:51:57.047Z,68.03
2023-01-15T13:55:02.264Z,67.95
2023-01-15T13:58:17.177Z,68.20
2023-01-15T14:01:18.839Z,68.60
2023-01-15T14:04:33.915Z,69.46
2023-01-15T14:07:37.505Z,68.76
2023-01-15T14:10:39.102Z,69.21
2023-01-15T14:13:57.044Z,69.11
2023-01-15T14:17:04.459Z,69.54
2023-01-15T14:20:19.781Z,70.01
2023-01-15T14:23:33.326Z,69.90
2023-01-15T14:26:47.264Z,70.34
2023-01-15T14:29:54.789Z,69.98
2023-01-15T14:33:00.758Z,70.62
2023-01-15T14:36:18.171Z,71.43
2023-01-15T14:39:31.179Z,71.75
2023-01-15T14:42:40.448Z,73.53
2023-01-15T14:45:43.776Z,72.69
2023-01-15T14:48:45.599Z,72.43
2023-01-15T14:51:49.649Z,72.92
2023-01-15T14:54:52.124Z,72.84
2023-01-15T14:58:00.894Z,72.89
2023-01-15T15:01:14.494Z,72.92
2023-01-15T15:04:22.412Z,72.79
2023-01-15T15:07:26.962Z,72.61
2023-01-15T15:10:36.247Z,73.05
2023-01-15T15:13:39.512Z,73.05
2023-01-15T15:16:45.351Z,73.24
2023-01-15T15:19:51.486Z,73.62
2023-01-15T15:22:56.725Z,73.56
2023-01-15T15:26:01.090Z,73.61
2023-01-15T15:29:11.770Z,73.46
2023-01-15T15:32:17.702Z,73.88
2023-01-15T15:35:29.822Z,73.79
2023-01-15T15:38:31.421Z,73.74
2023-01-15T15:41:35.097Z,73.65
2023-01-15T15:44:42.497Z,73.41
2023-01-15T15:47:44.753Z,73.19
2023-01-15T15:50:47.886Z,73.47
2023-01-15T15:53:49.480Z,73.24
2023-01-15T15:56:53.650Z,73.33
2023-01-15T15:59:55.543Z,73.62
2023-01-15T16:02:58.002Z,73.64
2023-01-15T16:06:02.098Z,73.80
2023-01-15T16:09:09.362Z,73.98
2023-01-15T16:12:12.993Z,73.91
2023-01-15T16:15:17.343Z,73.94
2023-01-15T16:18:23.919Z,74.03
2023-01-15T16:21:32.453Z,73.98
2023-01-15T16:24:34.150Z,74.07
2023-01-15T16:27:35.802Z,73.92
2023-01-15T16:30:37.465Z,73.93
2023-01-15T16:33:39.542Z,73.82
2023-01-15T16:36:42.707Z,74.05
2023-01-15T16:39:45.636Z,73.92
2023-01-15T16:42:47.188Z,73.58
2023-01-15T16:46:06.170Z,73.54
2023-01-15T16:49:31.518Z,73.52
2023-01-15T16:52:57.855Z,73.67
2023-01-15T16:55:59.691Z,73.90
2023-01-15T16:59:01.594Z,74.00
2023-01-15T17:02:15.534Z,74.17
2023-01-15T17:05:22.269Z,74.08
2023-01-15T17:08:36.381Z,74.13
2023-01-15T17:11:37.985Z,74.48
2023-01-15T17:14:39.456Z,74.43
2023-01-15T17:17:42.316Z,74.51
2023-01-15T17:20:43.992Z,74.40
2023-01-15T17:23:45.744Z,74.77
2023-01-15T17:26:47.333Z,74.93
2023-01-15T17:29:49.252Z,75.10
2023-01-15T17:32:50.790Z,75.24
2023-01-15T17:35:52.365Z,75.38
2023-01-15T17:38:54.645Z,75.84
2023-01-15T17:41:56.916Z,76.47
2023-01-15T17:44:58.627Z,75.84
2023-01-15T17:48:00.466Z,76.37
2023-01-15T17:51:07.195Z,78.76
2023-01-15T17:54:08.816Z,80.42
2023-01-15T17:57:10.346Z,80.58
2023-01-15T18:00:12.475Z,80.58
2023-01-15T18:03:18.487Z,81.48
2023-01-15T18:06:21.481Z,80.95
2023-01-15T18:09:23.557Z,80.62
2023-01-15T18:12:25.204Z,80.69
2023-01-15T18:15:26.723Z,79.97
2023-01-15T18:18:28.347Z,80.40
2023-01-15T18:21:29.870Z,80.13
2023-01-15T18:24:31.597Z,80.01
2023-01-15T18:27:33.144Z,79.86
2023-01-15T18:30:34.819Z,80.56
2023-01-15T18:33:36.334Z,81.32
2023-01-15T18:36:37.952Z,81.00
2023-01-15T18:39:39.658Z,79.72
2023-01-15T18:42:41.548Z,79.34
2023-01-15T18:45:46.038Z,78.72
2023-01-15T18:48:47.594Z,78.71
2023-01-15T18:51:49.179Z,78.71
2023-01-15T18:54:50.789Z,79.11
2023-01-15T18:57:53.671Z,79.67
2023-01-15T19:00:55.518Z,80.38
2023-01-15T19:03:58.787Z,79.94
2023-01-15T19:07:00.934Z,80.16
2023-01-15T19:10:02.608Z,80.60
2023-01-15T19:13:04.513Z,80.04
2023-01-15T19:16:06.719Z,79.92
2023-01-15T19:19:08.437Z,80.91
2023-01-15T19:22:11.292Z,80.32
2023-01-15T19:25:12.993Z,80.01
2023-01-15T19:28:19.268Z,79.92
2023-01-15T19:31:20.935Z,79.89
2023-01-15T19:34:33.536Z,80.17
2023-01-15T19:37:35.435Z,80.64
2023-01-15T19:40:37.014Z,80.67
2023-01-15T19:43:38.765Z,81.92
2023-01-15T19:46:40.296Z,82.39
2023-01-15T19:49:42.278Z,82.45
2023-01-15T19:52:44.023Z,81.98
2023-01-15T19:55:45.489Z,83.32
2023-01-15T19:58:47.124Z,83.43
2023-01-15T20:01:48.603Z,83.82
2023-01-15T20:04:50.826Z,82.75
2023-01-15T20:07:52.459Z,82.49
2023-01-15T20:10:54.040Z,83.55
2023-01-15T20:13:58.486Z,84.05
2023-01-15T20:17:00.112Z,84.33
2023-01-15T20:20:01.615Z,84.03
2023-01-15T20:23:03.458Z,84.20
2023-01-15T20:26:07.656Z,83.73
2023-01-15T20:29:09.406Z,84.40
2023-01-15T20:32:11.030Z,83.36
2023-01-15T20:35:15.318Z,83.14
2023-01-15T20:38:16.912Z,82.50
2023-01-15T20:41:18.591Z,82.70
2023-01-15T20:44:20.107Z,82.51
2023-01-15T20:47:27.130Z,82.98
2023-01-15T20:50:30.606Z,83.17
2023-01-15T20:53:33.997Z,83.69
2023-01-15T20:56:35.627Z,84.29
2023-01-15T20:59:37.313Z,84.17
2023-01-15T21:02:38.828Z,84.22
2023-01-15T21:05:40.512Z,83.88
2023-01-15T21:08:42.725Z,82.98
2023-01-15T21:11:44.282Z,82.90
2023-01-15T21:14:46.109Z,84.11
2023-01-15T21:17:47.852Z,84.80
2023-01-15T21:20:51.293Z,85.11
2023-01-15T21:23:53.245Z,84.59
2023-01-15T21:26:55.150Z,84.44
2023-01-15T21:29:56.771Z,84.86
2023-01-15T21:32:58.411Z,84.92
2023-01-15T21:36:08.437Z,84.75
2023-01-15T21:39:14.696Z,84.74
2023-01-15T21:42:18.448Z,84.83
2023-01-15T21:45:20.227Z,85.02
2023-01-15T21:48:21.868Z,84.69
2023-01-15T21:51:25.272Z,84.73
2023-01-15T21:54:27.181Z,84.52
2023-01-15T21:57:29.968Z,84.60
2023-01-15T22:00:31.566Z,84.80
2023-01-15T22:03:36.312Z,84.96
2023-01-15T22:06:38.173Z,85.06
2023-01-15T22:09:39.801Z,84.60
2023-01-15T22:12:41.303Z,84.37
2023-01-15T22:15:43.053Z,84.33
2023-01-15T22:18:44.792Z,84.10
2023-01-15T22:21:55.330Z,84.11
2023-01-15T22:24:56.920Z,84.13
2023-01-15T22:27:58.509Z,84.18
2023-01-15T22:31:00.186Z,84.36
2023-01-15T22:34:01.700Z,84.37
2023-01-15T22:37:03.345Z,84.47
2023-01-15T22:40:05.670Z,84.51
2023-01-15T22:43:07.206Z,84.12
2023-01-15T22:46:13.010Z,83.86
2023-01-15T22:49:14.577Z,83.87
2023-01-15T22:52:16.278Z,84.01
2023-01-15T22:55:17.863Z,84.10
2023-01-15T22:58:19.355Z,84.31
2023-01-15T23:01:22.224Z,84.49
2023-01-15T23:04:24.758Z,84.27
2023-01-15T23:07:27.647Z,83.78
2023-01-15T23:10:29.165Z,83.51
2023-01-15T23:13:31.419Z,83.44
2023-01-15T23:16:32.999Z,83.38
2023-01-15T23:19:34.715Z,83.30
2023-01-15T23:22:36.537Z,83.33
2023-01-15T23:25:38.117Z,83.03
2023-01-15T23:28:40.154Z,83.10
2023-01-15T23:31:41.846Z,83.05
2023-01-15T23:34:43.382Z,82.67
2023-01-15T23:37:45.100Z,82.66
2023-01-15T23:40:46.738Z,82.55
2023-01-15T23:43:48.327Z,82.40
2023-01-15T23:46:49.980Z,82.45
2023-01-15T23:49:51.568Z,82.46
2023-01-15T23:52:53.134Z,82.44
2023-01-15T23:55:57.468Z,82.34
2023-01-15T23:58:59.949Z,82.15
